sensor_id;sensor_type;location;lat;lon;timestamp;P1;durP1;ratioP1;P2;durP2;ratioP2
44139;SDS011;29803;51.048;4.686;2023-09-07T00:00:34;14.43;;;7.25;;
44139;SDS011;29803;51.048;4.686;2023-09-07T00:03:04;11.40;;;6.47;;
44139;SDS011;29803;51.048;4.686;2023-09-07T00:05:35;13.70;;;7.40;;
44139;SDS011;29803;51.048;4.686;2023-09-07T00:08:06;11.95;;;7.35;;
44139;SDS011;29803;51.048;4.686;2023-09-07T00:10:36;14.20;;;7.70;;
44139;SDS011;29803;51.048;4.686;2023-09-07T00:13:06;11.77;;;7.40;;
44139;SDS011;29803;51.048;4.686;2023-09-07T00:15:37;12.15;;;6.85;;
44139;SDS011;29803;51.048;4.686;2023-09-07T00:18:08;12.68;;;7.93;;
44139;SDS011;29803;51.048;4.686;2023-09-07T00:20:39;14.23;;;7.80;;
44139;SDS011;29803;51.048;4.686;2023-09-07T00:23:10;13.82;;;8.30;;
44139;SDS011;29803;51.048;4.686;2023-09-07T00:25:41;12.98;;;7.85;;
44139;SDS011;29803;51.048;4.686;2023-09-07T00:28:11;14.27;;;8.25;;
44139;SDS011;29803;51.048;4.686;2023-09-07T00:30:42;12.35;;;7.63;;
44139;SDS011;29803;51.048;4.686;2023-09-07T00:33:13;17.83;;;7.57;;
44139;SDS011;29803;51.048;4.686;2023-09-07T00:35:43;13.20;;;7.80;;
44139;SDS011;29803;51.048;4.686;2023-09-07T00:38:13;13.18;;;7.20;;
44139;SDS011;29803;51.048;4.686;2023-09-07T00:40:44;13.70;;;8.43;;
44139;SDS011;29803;51.048;4.686;2023-09-07T00:43:16;12.63;;;7.43;;
44139;SDS011;29803;51.048;4.686;2023-09-07T00:45:46;14.27;;;8.10;;
44139;SDS011;29803;51.048;4.686;2023-09-07T00:48:17;11.68;;;7.00;;
44139;SDS011;29803;51.048;4.686;2023-09-07T00:50:48;10.75;;;7.05;;
44139;SDS011;29803;51.048;4.686;2023-09-07T00:53:18;14.80;;;7.35;;
44139;SDS011;29803;51.048;4.686;2023-09-07T00:55:49;13.52;;;8.35;;
44139;SDS011;29803;51.048;4.686;2023-09-07T00:58:20;14.57;;;7.15;;
44139;SDS011;29803;51.048;4.686;2023-09-07T01:00:51;12.05;;;7.43;;
44139;SDS011;29803;51.048;4.686;2023-09-07T01:03:22;13.43;;;7.70;;
44139;SDS011;29803;51.048;4.686;2023-09-07T01:05:54;13.50;;;8.13;;
44139;SDS011;29803;51.048;4.686;2023-09-07T01:08:31;13.65;;;7.60;;
44139;SDS011;29803;51.048;4.686;2023-09-07T01:11:13;15.07;;;8.52;;
44139;SDS011;29803;51.048;4.686;2023-09-07T01:13:45;14.02;;;8.18;;
44139;SDS011;29803;51.048;4.686;2023-09-07T01:16:15;17.80;;;8.60;;
44139;SDS011;29803;51.048;4.686;2023-09-07T01:18:46;13.95;;;8.35;;
44139;SDS011;29803;51.048;4.686;2023-09-07T01:21:17;16.92;;;8.60;;
44139;SDS011;29803;51.048;4.686;2023-09-07T01:23:49;14.40;;;7.78;;
44139;SDS011;29803;51.048;4.686;2023-09-07T01:26:20;14.50;;;8.55;;
44139;SDS011;29803;51.048;4.686;2023-09-07T01:28:51;10.98;;;7.85;;
44139;SDS011;29803;51.048;4.686;2023-09-07T01:31:22;11.60;;;8.75;;
44139;SDS011;29803;51.048;4.686;2023-09-07T01:33:52;13.07;;;8.07;;
44139;SDS011;29803;51.048;4.686;2023-09-07T01:36:23;14.45;;;8.50;;
44139;SDS011;29803;51.048;4.686;2023-09-07T01:38:53;12.48;;;8.20;;
44139;SDS011;29803;51.048;4.686;2023-09-07T01:41:24;15.43;;;9.13;;
44139;SDS011;29803;51.048;4.686;2023-09-07T01:43:54;18.10;;;8.40;;
44139;SDS011;29803;51.048;4.686;2023-09-07T01:46:26;14.18;;;9.18;;
44139;SDS011;29803;51.048;4.686;2023-09-07T01:48:56;12.88;;;9.00;;
44139;SDS011;29803;51.048;4.686;2023-09-07T01:51:27;16.35;;;9.48;;
44139;SDS011;29803;51.048;4.686;2023-09-07T01:53:58;14.80;;;8.65;;
44139;SDS011;29803;51.048;4.686;2023-09-07T01:56:28;14.05;;;8.90;;
44139;SDS011;29803;51.048;4.686;2023-09-07T01:58:59;17.02;;;9.55;;
44139;SDS011;29803;51.048;4.686;2023-09-07T02:01:30;16.58;;;9.05;;
44139;SDS011;29803;51.048;4.686;2023-09-07T02:04:01;16.13;;;9.45;;
44139;SDS011;29803;51.048;4.686;2023-09-07T02:06:32;15.13;;;9.05;;
44139;SDS011;29803;51.048;4.686;2023-09-07T02:09:03;14.98;;;9.32;;
44139;SDS011;29803;51.048;4.686;2023-09-07T02:11:34;15.60;;;8.95;;
44139;SDS011;29803;51.048;4.686;2023-09-07T02:14:05;16.15;;;9.38;;
44139;SDS011;29803;51.048;4.686;2023-09-07T02:16:35;16.95;;;9.13;;
44139;SDS011;29803;51.048;4.686;2023-09-07T02:19:06;17.08;;;9.77;;
44139;SDS011;29803;51.048;4.686;2023-09-07T02:21:37;15.25;;;8.60;;
44139;SDS011;29803;51.048;4.686;2023-09-07T02:24:08;16.38;;;8.70;;
44139;SDS011;29803;51.048;4.686;2023-09-07T02:26:38;17.23;;;10.05;;
44139;SDS011;29803;51.048;4.686;2023-09-07T02:29:14;14.10;;;9.82;;
44139;SDS011;29803;51.048;4.686;2023-09-07T02:31:45;17.98;;;10.50;;
44139;SDS011;29803;51.048;4.686;2023-09-07T02:34:15;15.02;;;9.82;;
44139;SDS011;29803;51.048;4.686;2023-09-07T02:36:46;19.83;;;10.68;;
44139;SDS011;29803;51.048;4.686;2023-09-07T02:39:16;16.73;;;9.35;;
44139;SDS011;29803;51.048;4.686;2023-09-07T02:41:47;15.50;;;9.65;;
44139;SDS011;29803;51.048;4.686;2023-09-07T02:44:18;16.83;;;9.82;;
44139;SDS011;29803;51.048;4.686;2023-09-07T02:46:48;13.05;;;9.02;;
44139;SDS011;29803;51.048;4.686;2023-09-07T02:49:19;14.10;;;9.02;;
44139;SDS011;29803;51.048;4.686;2023-09-07T02:51:49;14.60;;;9.77;;
44139;SDS011;29803;51.048;4.686;2023-09-07T02:54:20;17.92;;;10.07;;
44139;SDS011;29803;51.048;4.686;2023-09-07T02:56:50;13.50;;;8.98;;
44139;SDS011;29803;51.048;4.686;2023-09-07T02:59:21;16.83;;;9.88;;
44139;SDS011;29803;51.048;4.686;2023-09-07T03:01:51;13.48;;;9.15;;
44139;SDS011;29803;51.048;4.686;2023-09-07T03:04:22;15.18;;;8.95;;
44139;SDS011;29803;51.048;4.686;2023-09-07T03:06:53;21.15;;;10.05;;
44139;SDS011;29803;51.048;4.686;2023-09-07T03:09:24;18.95;;;10.50;;
44139;SDS011;29803;51.048;4.686;2023-09-07T03:11:54;15.68;;;9.70;;
44139;SDS011;29803;51.048;4.686;2023-09-07T03:14:25;15.73;;;10.13;;
44139;SDS011;29803;51.048;4.686;2023-09-07T03:16:55;16.77;;;9.82;;
44139;SDS011;29803;51.048;4.686;2023-09-07T03:19:26;13.15;;;8.93;;
44139;SDS011;29803;51.048;4.686;2023-09-07T03:21:56;16.75;;;10.00;;
44139;SDS011;29803;51.048;4.686;2023-09-07T03:24:27;15.10;;;10.43;;
44139;SDS011;29803;51.048;4.686;2023-09-07T03:26:58;16.05;;;10.50;;
44139;SDS011;29803;51.048;4.686;2023-09-07T03:29:29;16.38;;;10.38;;
44139;SDS011;29803;51.048;4.686;2023-09-07T03:32:00;22.25;;;10.57;;
44139;SDS011;29803;51.048;4.686;2023-09-07T03:34:30;16.38;;;9.02;;
44139;SDS011;29803;51.048;4.686;2023-09-07T03:37:01;18.30;;;9.02;;
44139;SDS011;29803;51.048;4.686;2023-09-07T03:39:32;14.52;;;9.88;;
44139;SDS011;29803;51.048;4.686;2023-09-07T03:42:03;14.70;;;9.27;;
44139;SDS011;29803;51.048;4.686;2023-09-07T03:44:33;15.85;;;9.50;;
44139;SDS011;29803;51.048;4.686;2023-09-07T03:47:04;14.68;;;9.15;;
44139;SDS011;29803;51.048;4.686;2023-09-07T03:49:35;19.80;;;10.65;;
44139;SDS011;29803;51.048;4.686;2023-09-07T03:52:05;19.23;;;9.70;;
44139;SDS011;29803;51.048;4.686;2023-09-07T03:54:36;16.77;;;10.63;;
44139;SDS011;29803;51.048;4.686;2023-09-07T03:57:06;15.70;;;9.02;;
44139;SDS011;29803;51.048;4.686;2023-09-07T03:59:36;15.52;;;9.13;;
44139;SDS011;29803;51.048;4.686;2023-09-07T04:02:07;16.38;;;8.88;;
44139;SDS011;29803;51.048;4.686;2023-09-07T04:04:38;12.05;;;7.75;;
44139;SDS011;29803;51.048;4.686;2023-09-07T04:07:09;13.90;;;8.20;;
44139;SDS011;29803;51.048;4.686;2023-09-07T04:09:39;12.48;;;7.10;;
44139;SDS011;29803;51.048;4.686;2023-09-07T04:12:10;11.50;;;8.00;;
44139;SDS011;29803;51.048;4.686;2023-09-07T04:14:40;13.35;;;8.63;;
44139;SDS011;29803;51.048;4.686;2023-09-07T04:17:12;13.82;;;8.68;;
44139;SDS011;29803;51.048;4.686;2023-09-07T04:19:42;11.93;;;7.28;;
44139;SDS011;29803;51.048;4.686;2023-09-07T04:22:13;11.88;;;7.97;;
44139;SDS011;29803;51.048;4.686;2023-09-07T04:24:47;16.48;;;8.75;;
44139;SDS011;29803;51.048;4.686;2023-09-07T04:27:18;14.73;;;9.27;;
44139;SDS011;29803;51.048;4.686;2023-09-07T04:29:49;12.20;;;7.47;;
44139;SDS011;29803;51.048;4.686;2023-09-07T04:32:20;13.45;;;8.20;;
44139;SDS011;29803;51.048;4.686;2023-09-07T04:34:54;17.05;;;9.60;;
44139;SDS011;29803;51.048;4.686;2023-09-07T04:37:26;16.80;;;7.68;;
44139;SDS011;29803;51.048;4.686;2023-09-07T04:39:56;13.48;;;8.45;;
44139;SDS011;29803;51.048;4.686;2023-09-07T04:42:27;11.88;;;7.22;;
44139;SDS011;29803;51.048;4.686;2023-09-07T04:44:57;15.75;;;9.48;;
44139;SDS011;29803;51.048;4.686;2023-09-07T04:47:28;18.38;;;10.10;;
44139;SDS011;29803;51.048;4.686;2023-09-07T04:49:58;15.38;;;9.50;;
44139;SDS011;29803;51.048;4.686;2023-09-07T04:52:28;22.38;;;9.95;;
44139;SDS011;29803;51.048;4.686;2023-09-07T04:54:59;19.35;;;8.93;;
44139;SDS011;29803;51.048;4.686;2023-09-07T04:57:30;15.57;;;9.77;;
44139;SDS011;29803;51.048;4.686;2023-09-07T05:00:01;12.15;;;7.45;;
44139;SDS011;29803;51.048;4.686;2023-09-07T05:02:33;17.88;;;9.10;;
44139;SDS011;29803;51.048;4.686;2023-09-07T05:05:08;16.92;;;9.75;;
44139;SDS011;29803;51.048;4.686;2023-09-07T05:07:39;22.40;;;9.68;;
44139;SDS011;29803;51.048;4.686;2023-09-07T05:10:09;13.75;;;7.70;;
44139;SDS011;29803;51.048;4.686;2023-09-07T05:12:42;11.02;;;6.68;;
44139;SDS011;29803;51.048;4.686;2023-09-07T05:15:12;10.55;;;7.40;;
44139;SDS011;29803;51.048;4.686;2023-09-07T05:17:43;15.73;;;8.35;;
44139;SDS011;29803;51.048;4.686;2023-09-07T05:20:13;17.23;;;9.13;;
44139;SDS011;29803;51.048;4.686;2023-09-07T05:22:44;11.95;;;6.85;;
44139;SDS011;29803;51.048;4.686;2023-09-07T05:25:15;16.30;;;8.68;;
44139;SDS011;29803;51.048;4.686;2023-09-07T05:27:46;23.95;;;9.85;;
44139;SDS011;29803;51.048;4.686;2023-09-07T05:30:16;14.20;;;6.57;;
44139;SDS011;29803;51.048;4.686;2023-09-07T05:32:47;9.85;;;7.05;;
44139;SDS011;29803;51.048;4.686;2023-09-07T05:35:17;11.82;;;7.05;;
44139;SDS011;29803;51.048;4.686;2023-09-07T05:37:48;10.90;;;6.45;;
44139;SDS011;29803;51.048;4.686;2023-09-07T05:40:19;19.73;;;8.23;;
44139;SDS011;29803;51.048;4.686;2023-09-07T05:42:50;14.80;;;6.72;;
44139;SDS011;29803;51.048;4.686;2023-09-07T05:45:20;15.93;;;8.15;;
44139;SDS011;29803;51.048;4.686;2023-09-07T05:47:51;16.05;;;9.05;;
44139;SDS011;29803;51.048;4.686;2023-09-07T05:50:21;22.15;;;10.00;;
44139;SDS011;29803;51.048;4.686;2023-09-07T05:52:52;13.98;;;8.20;;
44139;SDS011;29803;51.048;4.686;2023-09-07T05:55:22;18.23;;;10.57;;
44139;SDS011;29803;51.048;4.686;2023-09-07T05:57:53;15.77;;;10.10;;
44139;SDS011;29803;51.048;4.686;2023-09-07T06:00:25;22.95;;;13.18;;
44139;SDS011;29803;51.048;4.686;2023-09-07T06:02:55;25.27;;;13.85;;
44139;SDS011;29803;51.048;4.686;2023-09-07T06:05:26;26.05;;;13.48;;
44139;SDS011;29803;51.048;4.686;2023-09-07T06:07:59;19.10;;;11.55;;
44139;SDS011;29803;51.048;4.686;2023-09-07T06:10:33;18.85;;;11.27;;
44139;SDS011;29803;51.048;4.686;2023-09-07T06:13:04;19.88;;;11.90;;
44139;SDS011;29803;51.048;4.686;2023-09-07T06:15:35;23.65;;;12.50;;
44139;SDS011;29803;51.048;4.686;2023-09-07T06:18:06;17.92;;;11.25;;
44139;SDS011;29803;51.048;4.686;2023-09-07T06:20:36;15.98;;;10.32;;
44139;SDS011;29803;51.048;4.686;2023-09-07T06:23:07;17.02;;;10.73;;
44139;SDS011;29803;51.048;4.686;2023-09-07T06:25:37;18.45;;;10.90;;
44139;SDS011;29803;51.048;4.686;2023-09-07T06:28:10;17.95;;;10.65;;
44139;SDS011;29803;51.048;4.686;2023-09-07T06:30:46;16.33;;;10.98;;
44139;SDS011;29803;51.048;4.686;2023-09-07T06:33:16;19.35;;;10.68;;
44139;SDS011;29803;51.048;4.686;2023-09-07T06:35:47;18.77;;;10.50;;
44139;SDS011;29803;51.048;4.686;2023-09-07T06:38:17;18.70;;;10.60;;
44139;SDS011;29803;51.048;4.686;2023-09-07T06:40:48;18.67;;;9.90;;
44139;SDS011;29803;51.048;4.686;2023-09-07T06:43:19;19.75;;;10.63;;
44139;SDS011;29803;51.048;4.686;2023-09-07T06:45:50;18.83;;;9.63;;
44139;SDS011;29803;51.048;4.686;2023-09-07T06:48:21;19.77;;;10.23;;
44139;SDS011;29803;51.048;4.686;2023-09-07T06:50:51;15.77;;;9.63;;
44139;SDS011;29803;51.048;4.686;2023-09-07T06:53:22;13.10;;;9.00;;
44139;SDS011;29803;51.048;4.686;2023-09-07T06:56:00;13.07;;;9.13;;
44139;SDS011;29803;51.048;4.686;2023-09-07T06:58:31;13.95;;;8.63;;
44139;SDS011;29803;51.048;4.686;2023-09-07T07:01:04;15.98;;;9.07;;
44139;SDS011;29803;51.048;4.686;2023-09-07T07:03:34;12.32;;;7.82;;
44139;SDS011;29803;51.048;4.686;2023-09-07T07:06:05;14.23;;;9.10;;
44139;SDS011;29803;51.048;4.686;2023-09-07T07:08:36;13.43;;;7.93;;
44139;SDS011;29803;51.048;4.686;2023-09-07T07:11:07;16.10;;;8.60;;
44139;SDS011;29803;51.048;4.686;2023-09-07T07:13:38;11.82;;;7.55;;
44139;SDS011;29803;51.048;4.686;2023-09-07T07:16:08;11.43;;;7.55;;
44139;SDS011;29803;51.048;4.686;2023-09-07T07:18:39;14.73;;;7.07;;
44139;SDS011;29803;51.048;4.686;2023-09-07T07:21:09;15.10;;;7.45;;
44139;SDS011;29803;51.048;4.686;2023-09-07T07:23:40;13.68;;;6.82;;
44139;SDS011;29803;51.048;4.686;2023-09-07T07:26:11;11.10;;;7.05;;
44139;SDS011;29803;51.048;4.686;2023-09-07T07:28:41;11.80;;;6.68;;
44139;SDS011;29803;51.048;4.686;2023-09-07T07:31:12;13.40;;;7.30;;
44139;SDS011;29803;51.048;4.686;2023-09-07T07:33:42;10.55;;;6.80;;
44139;SDS011;29803;51.048;4.686;2023-09-07T07:36:13;11.45;;;6.60;;
44139;SDS011;29803;51.048;4.686;2023-09-07T07:38:43;15.23;;;6.78;;
44139;SDS011;29803;51.048;4.686;2023-09-07T07:41:14;11.57;;;6.50;;
44139;SDS011;29803;51.048;4.686;2023-09-07T07:43:44;12.50;;;7.00;;
44139;SDS011;29803;51.048;4.686;2023-09-07T07:46:15;11.07;;;6.55;;
44139;SDS011;29803;51.048;4.686;2023-09-07T07:48:46;10.77;;;6.10;;
44139;SDS011;29803;51.048;4.686;2023-09-07T07:51:16;9.73;;;5.45;;
44139;SDS011;29803;51.048;4.686;2023-09-07T07:53:47;11.25;;;5.93;;
44139;SDS011;29803;51.048;4.686;2023-09-07T07:56:18;10.43;;;5.75;;
44139;SDS011;29803;51.048;4.686;2023-09-07T07:58:48;10.25;;;6.07;;
44139;SDS011;29803;51.048;4.686;2023-09-07T08:01:20;9.30;;;5.85;;
44139;SDS011;29803;51.048;4.686;2023-09-07T08:03:51;13.18;;;5.82;;
44139;SDS011;29803;51.048;4.686;2023-09-07T08:06:22;9.23;;;5.55;;
44139;SDS011;29803;51.048;4.686;2023-09-07T08:08:53;8.55;;;5.28;;
44139;SDS011;29803;51.048;4.686;2023-09-07T08:11:24;9.70;;;5.32;;
44139;SDS011;29803;51.048;4.686;2023-09-07T08:13:55;11.80;;;5.13;;
44139;SDS011;29803;51.048;4.686;2023-09-07T08:16:26;9.63;;;5.15;;
44139;SDS011;29803;51.048;4.686;2023-09-07T08:18:56;7.78;;;4.93;;
44139;SDS011;29803;51.048;4.686;2023-09-07T08:21:27;9.75;;;4.90;;
44139;SDS011;29803;51.048;4.686;2023-09-07T08:23:57;11.02;;;5.78;;
44139;SDS011;29803;51.048;4.686;2023-09-07T08:26:28;11.05;;;5.75;;
44139;SDS011;29803;51.048;4.686;2023-09-07T08:28:58;16.27;;;10.07;;
44139;SDS011;29803;51.048;4.686;2023-09-07T08:31:29;10.48;;;5.25;;
44139;SDS011;29803;51.048;4.686;2023-09-07T08:34:00;7.63;;;5.28;;
44139;SDS011;29803;51.048;4.686;2023-09-07T08:36:32;4.93;;;4.18;;
44139;SDS011;29803;51.048;4.686;2023-09-07T08:39:04;11.20;;;4.82;;
44139;SDS011;29803;51.048;4.686;2023-09-07T08:41:38;9.73;;;4.75;;
44139;SDS011;29803;51.048;4.686;2023-09-07T08:44:15;9.40;;;4.35;;
44139;SDS011;29803;51.048;4.686;2023-09-07T08:46:49;6.00;;;4.47;;
44139;SDS011;29803;51.048;4.686;2023-09-07T08:49:21;8.20;;;4.75;;
44139;SDS011;29803;51.048;4.686;2023-09-07T08:51:53;7.97;;;4.38;;
44139;SDS011;29803;51.048;4.686;2023-09-07T08:54:28;7.18;;;4.22;;
44139;SDS011;29803;51.048;4.686;2023-09-07T08:57:01;7.57;;;3.83;;
44139;SDS011;29803;51.048;4.686;2023-09-07T08:59:34;10.40;;;4.57;;
44139;SDS011;29803;51.048;4.686;2023-09-07T09:02:07;7.93;;;4.53;;
44139;SDS011;29803;51.048;4.686;2023-09-07T09:04:39;6.03;;;4.55;;
44139;SDS011;29803;51.048;4.686;2023-09-07T09:07:09;6.68;;;4.20;;
44139;SDS011;29803;51.048;4.686;2023-09-07T09:09:40;6.20;;;4.43;;
44139;SDS011;29803;51.048;4.686;2023-09-07T09:12:11;5.18;;;3.95;;
44139;SDS011;29803;51.048;4.686;2023-09-07T09:14:43;6.00;;;4.07;;
44139;SDS011;29803;51.048;4.686;2023-09-07T09:17:15;6.82;;;4.28;;
44139;SDS011;29803;51.048;4.686;2023-09-07T09:19:45;6.03;;;3.70;;
44139;SDS011;29803;51.048;4.686;2023-09-07T09:22:16;6.75;;;3.85;;
44139;SDS011;29803;51.048;4.686;2023-09-07T09:24:47;5.93;;;3.63;;
44139;SDS011;29803;51.048;4.686;2023-09-07T09:27:18;7.93;;;4.13;;
44139;SDS011;29803;51.048;4.686;2023-09-07T09:29:49;6.82;;;3.78;;
44139;SDS011;29803;51.048;4.686;2023-09-07T09:32:21;9.00;;;4.28;;
44139;SDS011;29803;51.048;4.686;2023-09-07T09:34:51;12.23;;;4.50;;
44139;SDS011;29803;51.048;4.686;2023-09-07T09:37:22;5.47;;;3.80;;
44139;SDS011;29803;51.048;4.686;2023-09-07T09:39:54;8.07;;;3.53;;
44139;SDS011;29803;51.048;4.686;2023-09-07T09:42:26;5.88;;;3.80;;
44139;SDS011;29803;51.048;4.686;2023-09-07T09:44:57;9.73;;;3.67;;
44139;SDS011;29803;51.048;4.686;2023-09-07T09:47:30;8.18;;;3.38;;
44139;SDS011;29803;51.048;4.686;2023-09-07T09:50:04;6.28;;;3.53;;
44139;SDS011;29803;51.048;4.686;2023-09-07T09:52:37;6.93;;;3.65;;
44139;SDS011;29803;51.048;4.686;2023-09-07T09:55:08;7.18;;;4.40;;
44139;SDS011;29803;51.048;4.686;2023-09-07T09:57:42;6.80;;;3.28;;
44139;SDS011;29803;51.048;4.686;2023-09-07T10:00:13;9.02;;;3.58;;
44139;SDS011;29803;51.048;4.686;2023-09-07T10:03:00;5.45;;;3.28;;
44139;SDS011;29803;51.048;4.686;2023-09-07T10:05:34;6.15;;;3.67;;
44139;SDS011;29803;51.048;4.686;2023-09-07T10:08:08;5.97;;;3.20;;
44139;SDS011;29803;51.048;4.686;2023-09-07T10:10:42;6.93;;;3.58;;
44139;SDS011;29803;51.048;4.686;2023-09-07T10:13:14;7.75;;;4.00;;
44139;SDS011;29803;51.048;4.686;2023-09-07T10:15:45;5.97;;;3.58;;
44139;SDS011;29803;51.048;4.686;2023-09-07T10:18:16;4.32;;;3.30;;
44139;SDS011;29803;51.048;4.686;2023-09-07T10:20:49;3.95;;;3.08;;
44139;SDS011;29803;51.048;4.686;2023-09-07T10:23:20;5.93;;;3.20;;
44139;SDS011;29803;51.048;4.686;2023-09-07T10:25:51;7.85;;;4.00;;
44139;SDS011;29803;51.048;4.686;2023-09-07T10:28:24;3.90;;;2.88;;
44139;SDS011;29803;51.048;4.686;2023-09-07T10:33:32;4.05;;;2.85;;
44139;SDS011;29803;51.048;4.686;2023-09-07T10:36:03;4.55;;;3.20;;
44139;SDS011;29803;51.048;4.686;2023-09-07T10:38:35;5.82;;;3.45;;
44139;SDS011;29803;51.048;4.686;2023-09-07T10:41:05;5.30;;;3.03;;
44139;SDS011;29803;51.048;4.686;2023-09-07T10:43:36;6.45;;;3.38;;
44139;SDS011;29803;51.048;4.686;2023-09-07T10:46:19;6.50;;;3.17;;
44139;SDS011;29803;51.048;4.686;2023-09-07T10:48:51;3.88;;;3.33;;
44139;SDS011;29803;51.048;4.686;2023-09-07T10:51:23;4.35;;;3.40;;
44139;SDS011;29803;51.048;4.686;2023-09-07T10:53:54;5.47;;;3.17;;
44139;SDS011;29803;51.048;4.686;2023-09-07T10:56:25;4.50;;;3.05;;
44139;SDS011;29803;51.048;4.686;2023-09-07T10:58:56;4.72;;;2.83;;
44139;SDS011;29803;51.048;4.686;2023-09-07T11:01:27;5.10;;;2.97;;
44139;SDS011;29803;51.048;4.686;2023-09-07T11:03:57;5.20;;;3.15;;
44139;SDS011;29803;51.048;4.686;2023-09-07T11:06:28;5.13;;;3.17;;
44139;SDS011;29803;51.048;4.686;2023-09-07T11:08:59;4.40;;;3.50;;
44139;SDS011;29803;51.048;4.686;2023-09-07T11:11:31;5.95;;;3.38;;
44139;SDS011;29803;51.048;4.686;2023-09-07T11:14:03;4.15;;;3.22;;
44139;SDS011;29803;51.048;4.686;2023-09-07T11:16:35;5.55;;;3.35;;
44139;SDS011;29803;51.048;4.686;2023-09-07T11:19:06;5.70;;;3.55;;
44139;SDS011;29803;51.048;4.686;2023-09-07T11:21:38;5.28;;;3.08;;
44139;SDS011;29803;51.048;4.686;2023-09-07T11:24:09;6.28;;;2.95;;
44139;SDS011;29803;51.048;4.686;2023-09-07T11:26:42;5.47;;;3.30;;
44139;SDS011;29803;51.048;4.686;2023-09-07T11:29:15;10.90;;;3.53;;
44139;SDS011;29803;51.048;4.686;2023-09-07T11:31:46;6.82;;;3.60;;
44139;SDS011;29803;51.048;4.686;2023-09-07T11:34:16;7.47;;;3.10;;
44139;SDS011;29803;51.048;4.686;2023-09-07T11:36:47;5.10;;;3.40;;
44139;SDS011;29803;51.048;4.686;2023-09-07T11:39:19;6.40;;;3.45;;
44139;SDS011;29803;51.048;4.686;2023-09-07T11:41:49;6.05;;;3.10;;
44139;SDS011;29803;51.048;4.686;2023-09-07T11:44:20;3.95;;;2.80;;
44139;SDS011;29803;51.048;4.686;2023-09-07T11:46:51;4.45;;;3.50;;
44139;SDS011;29803;51.048;4.686;2023-09-07T11:49:21;5.70;;;3.25;;
44139;SDS011;29803;51.048;4.686;2023-09-07T11:51:52;4.15;;;3.30;;
44139;SDS011;29803;51.048;4.686;2023-09-07T11:54:22;5.20;;;3.30;;
44139;SDS011;29803;51.048;4.686;2023-09-07T11:56:53;7.30;;;3.22;;
44139;SDS011;29803;51.048;4.686;2023-09-07T11:59:23;4.75;;;3.60;;
44139;SDS011;29803;51.048;4.686;2023-09-07T12:01:54;7.47;;;3.47;;
44139;SDS011;29803;51.048;4.686;2023-09-07T12:04:25;5.93;;;3.40;;
44139;SDS011;29803;51.048;4.686;2023-09-07T12:06:55;4.30;;;2.85;;
44139;SDS011;29803;51.048;4.686;2023-09-07T12:09:26;5.85;;;3.28;;
44139;SDS011;29803;51.048;4.686;2023-09-07T12:11:56;4.95;;;3.40;;
44139;SDS011;29803;51.048;4.686;2023-09-07T12:14:27;7.68;;;3.20;;
44139;SDS011;29803;51.048;4.686;2023-09-07T12:16:57;5.28;;;3.17;;
44139;SDS011;29803;51.048;4.686;2023-09-07T12:19:28;7.10;;;3.17;;
44139;SDS011;29803;51.048;4.686;2023-09-07T12:21:59;4.35;;;3.17;;
44139;SDS011;29803;51.048;4.686;2023-09-07T12:24:29;3.40;;;2.83;;
44139;SDS011;29803;51.048;4.686;2023-09-07T12:27:00;7.22;;;3.63;;
44139;SDS011;29803;51.048;4.686;2023-09-07T12:29:30;6.90;;;3.45;;
44139;SDS011;29803;51.048;4.686;2023-09-07T12:32:01;3.42;;;2.60;;
44139;SDS011;29803;51.048;4.686;2023-09-07T12:34:31;9.35;;;3.00;;
44139;SDS011;29803;51.048;4.686;2023-09-07T12:37:02;7.97;;;3.10;;
44139;SDS011;29803;51.048;4.686;2023-09-07T12:39:34;5.65;;;3.10;;
44139;SDS011;29803;51.048;4.686;2023-09-07T12:42:05;3.33;;;2.92;;
44139;SDS011;29803;51.048;4.686;2023-09-07T12:44:35;5.35;;;3.28;;
44139;SDS011;29803;51.048;4.686;2023-09-07T12:47:06;5.40;;;3.22;;
44139;SDS011;29803;51.048;4.686;2023-09-07T12:49:36;6.38;;;3.08;;
44139;SDS011;29803;51.048;4.686;2023-09-07T12:52:07;4.55;;;3.47;;
44139;SDS011;29803;51.048;4.686;2023-09-07T12:54:39;4.90;;;3.30;;
44139;SDS011;29803;51.048;4.686;2023-09-07T12:57:10;4.90;;;3.35;;
44139;SDS011;29803;51.048;4.686;2023-09-07T12:59:40;6.03;;;3.60;;
44139;SDS011;29803;51.048;4.686;2023-09-07T13:02:11;5.60;;;3.35;;
44139;SDS011;29803;51.048;4.686;2023-09-07T13:04:41;8.20;;;3.55;;
44139;SDS011;29803;51.048;4.686;2023-09-07T13:07:12;5.03;;;3.22;;
44139;SDS011;29803;51.048;4.686;2023-09-07T13:09:43;7.30;;;3.67;;
44139;SDS011;29803;51.048;4.686;2023-09-07T13:12:15;4.38;;;3.08;;
44139;SDS011;29803;51.048;4.686;2023-09-07T13:14:45;6.53;;;3.55;;
44139;SDS011;29803;51.048;4.686;2023-09-07T13:17:16;5.80;;;3.42;;
44139;SDS011;29803;51.048;4.686;2023-09-07T13:19:46;8.25;;;3.97;;
44139;SDS011;29803;51.048;4.686;2023-09-07T13:22:18;4.95;;;3.72;;
44139;SDS011;29803;51.048;4.686;2023-09-07T13:24:48;7.72;;;3.60;;
44139;SDS011;29803;51.048;4.686;2023-09-07T13:27:19;8.52;;;3.47;;
44139;SDS011;29803;51.048;4.686;2023-09-07T13:29:49;6.10;;;3.45;;
44139;SDS011;29803;51.048;4.686;2023-09-07T13:32:20;3.80;;;3.20;;
44139;SDS011;29803;51.048;4.686;2023-09-07T13:34:50;7.07;;;3.72;;
44139;SDS011;29803;51.048;4.686;2023-09-07T13:37:21;4.32;;;3.15;;
44139;SDS011;29803;51.048;4.686;2023-09-07T13:39:51;8.40;;;3.42;;
44139;SDS011;29803;51.048;4.686;2023-09-07T13:42:22;9.00;;;3.67;;
44139;SDS011;29803;51.048;4.686;2023-09-07T13:44:52;4.68;;;3.67;;
44139;SDS011;29803;51.048;4.686;2023-09-07T13:47:23;5.90;;;3.45;;
44139;SDS011;29803;51.048;4.686;2023-09-07T13:49:53;7.70;;;3.75;;
44139;SDS011;29803;51.048;4.686;2023-09-07T13:52:24;5.03;;;3.70;;
44139;SDS011;29803;51.048;4.686;2023-09-07T13:54:56;5.82;;;3.40;;
44139;SDS011;29803;51.048;4.686;2023-09-07T13:57:26;5.45;;;3.38;;
44139;SDS011;29803;51.048;4.686;2023-09-07T13:59:57;5.68;;;3.42;;
44139;SDS011;29803;51.048;4.686;2023-09-07T14:02:27;4.35;;;3.00;;
44139;SDS011;29803;51.048;4.686;2023-09-07T14:04:58;7.68;;;3.70;;
44139;SDS011;29803;51.048;4.686;2023-09-07T14:07:29;7.30;;;3.03;;
44139;SDS011;29803;51.048;4.686;2023-09-07T14:10:00;5.60;;;3.72;;
44139;SDS011;29803;51.048;4.686;2023-09-07T14:12:31;6.90;;;3.63;;
44139;SDS011;29803;51.048;4.686;2023-09-07T14:15:01;6.18;;;3.13;;
44139;SDS011;29803;51.048;4.686;2023-09-07T14:17:32;6.82;;;3.55;;
44139;SDS011;29803;51.048;4.686;2023-09-07T14:20:02;7.65;;;3.30;;
44139;SDS011;29803;51.048;4.686;2023-09-07T14:22:34;6.30;;;4.00;;
44139;SDS011;29803;51.048;4.686;2023-09-07T14:25:05;4.47;;;3.80;;
44139;SDS011;29803;51.048;4.686;2023-09-07T14:27:37;6.95;;;4.07;;
44139;SDS011;29803;51.048;4.686;2023-09-07T14:30:08;5.28;;;3.50;;
44139;SDS011;29803;51.048;4.686;2023-09-07T14:32:39;5.97;;;3.60;;
44139;SDS011;29803;51.048;4.686;2023-09-07T14:35:10;5.50;;;3.53;;
44139;SDS011;29803;51.048;4.686;2023-09-07T14:37:41;4.53;;;3.63;;
44139;SDS011;29803;51.048;4.686;2023-09-07T14:40:11;9.38;;;3.67;;
44139;SDS011;29803;51.048;4.686;2023-09-07T14:42:43;6.65;;;3.75;;
44139;SDS011;29803;51.048;4.686;2023-09-07T14:45:14;6.68;;;3.60;;
44139;SDS011;29803;51.048;4.686;2023-09-07T14:47:44;6.55;;;3.55;;
44139;SDS011;29803;51.048;4.686;2023-09-07T14:50:15;7.57;;;3.85;;
44139;SDS011;29803;51.048;4.686;2023-09-07T14:52:46;5.38;;;3.88;;
44139;SDS011;29803;51.048;4.686;2023-09-07T14:55:17;7.80;;;3.85;;
44139;SDS011;29803;51.048;4.686;2023-09-07T14:57:47;6.47;;;3.88;;
44139;SDS011;29803;51.048;4.686;2023-09-07T15:00:18;9.75;;;3.70;;
44139;SDS011;29803;51.048;4.686;2023-09-07T15:02:48;7.57;;;4.32;;